sensor_id;sensor_type;location;lat;lon;timestamp;P1;durP1;ratioP1;P2;durP2;ratioP2
83550;SDS011;74617;47.082;15.524;2024-02-15T00:00:16;0.98;;;0.60;;
83550;SDS011;74617;47.082;15.524;2024-02-15T00:02:42;2.17;;;0.93;;
83550;SDS011;74617;47.082;15.524;2024-02-15T00:05:10;2.33;;;1.15;;
83550;SDS011;74617;47.082;15.524;2024-02-15T00:07:36;2.50;;;0.88;;
83550;SDS011;74617;47.082;15.524;2024-02-15T00:10:01;1.75;;;0.80;;
83550;SDS011;74617;47.082;15.524;2024-02-15T00:12:28;0.77;;;0.70;;
83550;SDS011;74617;47.082;15.524;2024-02-15T00:14:55;1.33;;;0.88;;
83550;SDS011;74617;47.082;15.524;2024-02-15T00:17:23;1.90;;;0.90;;
83550;SDS011;74617;47.082;15.524;2024-02-15T00:19:49;1.48;;;0.65;;
83550;SDS011;74617;47.082;15.524;2024-02-15T00:22:14;2.10;;;0.95;;
83550;SDS011;74617;47.082;15.524;2024-02-15T00:24:40;0.70;;;0.60;;
83550;SDS011;74617;47.082;15.524;2024-02-15T00:27:07;1.42;;;0.65;;
83550;SDS011;74617;47.082;15.524;2024-02-15T00:29:33;1.27;;;0.65;;
83550;SDS011;74617;47.082;15.524;2024-02-15T00:31:59;1.50;;;0.80;;
83550;SDS011;74617;47.082;15.524;2024-02-15T00:34:26;1.15;;;0.65;;
83550;SDS011;74617;47.082;15.524;2024-02-15T00:36:51;2.35;;;1.00;;
83550;SDS011;74617;47.082;15.524;2024-02-15T00:39:17;2.58;;;0.80;;
83550;SDS011;74617;47.082;15.524;2024-02-15T00:41:46;1.63;;;0.77;;
83550;SDS011;74617;47.082;15.524;2024-02-15T00:44:11;2.83;;;1.00;;
83550;SDS011;74617;47.082;15.524;2024-02-15T00:46:37;1.67;;;0.75;;
83550;SDS011;74617;47.082;15.524;2024-02-15T00:49:03;1.50;;;0.80;;
83550;SDS011;74617;47.082;15.524;2024-02-15T00:51:31;2.08;;;0.75;;
83550;SDS011;74617;47.082;15.524;2024-02-15T00:53:59;1.23;;;0.80;;
83550;SDS011;74617;47.082;15.524;2024-02-15T00:56:26;1.88;;;0.80;;
83550;SDS011;74617;47.082;15.524;2024-02-15T00:58:52;2.08;;;0.70;;
83550;SDS011;74617;47.082;15.524;2024-02-15T01:01:18;1.65;;;0.77;;
83550;SDS011;74617;47.082;15.524;2024-02-15T01:03:43;2.38;;;0.90;;
83550;SDS011;74617;47.082;15.524;2024-02-15T01:06:08;1.65;;;0.88;;
83550;SDS011;74617;47.082;15.524;2024-02-15T01:08:34;0.65;;;0.47;;
83550;SDS011;74617;47.082;15.524;2024-02-15T01:10:59;0.82;;;0.50;;
83550;SDS011;74617;47.082;15.524;2024-02-15T01:13:25;1.52;;;0.60;;
83550;SDS011;74617;47.082;15.524;2024-02-15T01:15:51;1.35;;;0.63;;
83550;SDS011;74617;47.082;15.524;2024-02-15T01:18:16;1.67;;;0.80;;
83550;SDS011;74617;47.082;15.524;2024-02-15T01:20:41;1.92;;;0.85;;
83550;SDS011;74617;47.082;15.524;2024-02-15T01:23:07;1.40;;;0.60;;
83550;SDS011;74617;47.082;15.524;2024-02-15T01:25:32;0.95;;;0.50;;
83550;SDS011;74617;47.082;15.524;2024-02-15T01:27:58;1.15;;;0.70;;
83550;SDS011;74617;47.082;15.524;2024-02-15T01:30:23;0.82;;;0.50;;
83550;SDS011;74617;47.082;15.524;2024-02-15T01:32:49;2.08;;;0.93;;
83550;SDS011;74617;47.082;15.524;2024-02-15T01:35:14;1.38;;;0.80;;
83550;SDS011;74617;47.082;15.524;2024-02-15T01:37:40;1.00;;;0.70;;
83550;SDS011;74617;47.082;15.524;2024-02-15T01:40:06;0.98;;;0.50;;
83550;SDS011;74617;47.082;15.524;2024-02-15T01:42:32;0.63;;;0.43;;
83550;SDS011;74617;47.082;15.524;2024-02-15T01:44:57;1.55;;;0.80;;
83550;SDS011;74617;47.082;15.524;2024-02-15T01:47:23;1.38;;;0.63;;
83550;SDS011;74617;47.082;15.524;2024-02-15T01:49:49;1.42;;;0.60;;
83550;SDS011;74617;47.082;15.524;2024-02-15T01:52:15;2.72;;;0.77;;
83550;SDS011;74617;47.082;15.524;2024-02-15T01:54:42;1.90;;;0.50;;
83550;SDS011;74617;47.082;15.524;2024-02-15T01:57:08;1.40;;;0.60;;
83550;SDS011;74617;47.082;15.524;2024-02-15T01:59:34;1.33;;;0.70;;
83550;SDS011;74617;47.082;15.524;2024-02-15T02:01:59;1.77;;;0.80;;
83550;SDS011;74617;47.082;15.524;2024-02-15T02:04:26;1.45;;;0.60;;
83550;SDS011;74617;47.082;15.524;2024-02-15T02:06:51;2.10;;;0.80;;
83550;SDS011;74617;47.082;15.524;2024-02-15T02:09:20;1.58;;;0.70;;
83550;SDS011;74617;47.082;15.524;2024-02-15T02:11:47;1.30;;;0.60;;
83550;SDS011;74617;47.082;15.524;2024-02-15T02:14:13;2.95;;;0.80;;
83550;SDS011;74617;47.082;15.524;2024-02-15T02:16:39;2.08;;;0.90;;
83550;SDS011;74617;47.082;15.524;2024-02-15T02:19:04;1.30;;;0.70;;
83550;SDS011;74617;47.082;15.524;2024-02-15T02:21:34;1.92;;;0.60;;
83550;SDS011;74617;47.082;15.524;2024-02-15T02:24:01;1.63;;;0.80;;
83550;SDS011;74617;47.082;15.524;2024-02-15T02:26:32;1.30;;;0.63;;
83550;SDS011;74617;47.082;15.524;2024-02-15T02:28:59;1.58;;;0.73;;
83550;SDS011;74617;47.082;15.524;2024-02-15T02:31:25;1.05;;;0.50;;
83550;SDS011;74617;47.082;15.524;2024-02-15T02:33:52;1.48;;;0.68;;
83550;SDS011;74617;47.082;15.524;2024-02-15T02:36:21;2.78;;;0.63;;
83550;SDS011;74617;47.082;15.524;2024-02-15T02:38:46;2.20;;;0.70;;
83550;SDS011;74617;47.082;15.524;2024-02-15T02:41:15;2.22;;;0.68;;
83550;SDS011;74617;47.082;15.524;2024-02-15T02:43:41;2.08;;;0.70;;
83550;SDS011;74617;47.082;15.524;2024-02-15T02:46:06;3.55;;;1.00;;
83550;SDS011;74617;47.082;15.524;2024-02-15T02:48:35;1.65;;;0.50;;
83550;SDS011;74617;47.082;15.524;2024-02-15T02:51:01;0.93;;;0.50;;
83550;SDS011;74617;47.082;15.524;2024-02-15T02:53:27;1.48;;;0.68;;
83550;SDS011;74617;47.082;15.524;2024-02-15T02:55:55;0.50;;;0.40;;
83550;SDS011;74617;47.082;15.524;2024-02-15T02:58:21;1.05;;;0.50;;
83550;SDS011;74617;47.082;15.524;2024-02-15T03:00:48;3.20;;;0.68;;
83550;SDS011;74617;47.082;15.524;2024-02-15T03:03:13;1.67;;;0.50;;
83550;SDS011;74617;47.082;15.524;2024-02-15T03:05:40;0.98;;;0.60;;
83550;SDS011;74617;47.082;15.524;2024-02-15T03:08:07;0.85;;;0.60;;
83550;SDS011;74617;47.082;15.524;2024-02-15T03:10:34;1.92;;;0.70;;
83550;SDS011;74617;47.082;15.524;2024-02-15T03:12:59;1.92;;;0.80;;
83550;SDS011;74617;47.082;15.524;2024-02-15T03:15:25;0.85;;;0.52;;
83550;SDS011;74617;47.082;15.524;2024-02-15T03:17:50;1.20;;;0.60;;
83550;SDS011;74617;47.082;15.524;2024-02-15T03:20:16;1.25;;;0.50;;
83550;SDS011;74617;47.082;15.524;2024-02-15T03:22:52;1.73;;;0.50;;
83550;SDS011;74617;47.082;15.524;2024-02-15T03:25:21;0.40;;;0.40;;
83550;SDS011;74617;47.082;15.524;2024-02-15T03:27:49;0.88;;;0.43;;
83550;SDS011;74617;47.082;15.524;2024-02-15T03:30:18;0.93;;;0.50;;
83550;SDS011;74617;47.082;15.524;2024-02-15T03:32:45;0.93;;;0.60;;
83550;SDS011;74617;47.082;15.524;2024-02-15T03:35:13;1.23;;;0.60;;
83550;SDS011;74617;47.082;15.524;2024-02-15T03:37:42;1.10;;;0.45;;
83550;SDS011;74617;47.082;15.524;2024-02-15T03:40:08;4.18;;;0.68;;
83550;SDS011;74617;47.082;15.524;2024-02-15T03:42:35;0.95;;;0.60;;
83550;SDS011;74617;47.082;15.524;2024-02-15T03:45:04;0.68;;;0.40;;
83550;SDS011;74617;47.082;15.524;2024-02-15T03:47:34;1.35;;;0.63;;
83550;SDS011;74617;47.082;15.524;2024-02-15T03:50:03;0.73;;;0.38;;
83550;SDS011;74617;47.082;15.524;2024-02-15T03:52:30;0.70;;;0.40;;
83550;SDS011;74617;47.082;15.524;2024-02-15T03:54:56;0.90;;;0.57;;
83550;SDS011;74617;47.082;15.524;2024-02-15T03:57:25;0.90;;;0.50;;
83550;SDS011;74617;47.082;15.524;2024-02-15T03:59:51;1.02;;;0.60;;
83550;SDS011;74617;47.082;15.524;2024-02-15T04:02:22;1.38;;;0.60;;
83550;SDS011;74617;47.082;15.524;2024-02-15T04:04:51;2.58;;;0.70;;
83550;SDS011;74617;47.082;15.524;2024-02-15T04:07:18;2.45;;;0.85;;
83550;SDS011;74617;47.082;15.524;2024-02-15T04:09:43;1.08;;;0.52;;
83550;SDS011;74617;47.082;15.524;2024-02-15T04:12:09;1.50;;;0.70;;
83550;SDS011;74617;47.082;15.524;2024-02-15T04:14:35;1.55;;;0.60;;
83550;SDS011;74617;47.082;15.524;2024-02-15T04:17:00;1.20;;;0.60;;
83550;SDS011;74617;47.082;15.524;2024-02-15T04:19:30;1.13;;;0.50;;
83550;SDS011;74617;47.082;15.524;2024-02-15T04:21:56;1.23;;;0.52;;
83550;SDS011;74617;47.082;15.524;2024-02-15T04:24:21;1.60;;;1.00;;
83550;SDS011;74617;47.082;15.524;2024-02-15T04:26:48;1.23;;;0.52;;
83550;SDS011;74617;47.082;15.524;2024-02-15T04:29:14;1.27;;;0.57;;
83550;SDS011;74617;47.082;15.524;2024-02-15T04:31:45;1.80;;;0.70;;
83550;SDS011;74617;47.082;15.524;2024-02-15T04:34:17;2.15;;;0.98;;
83550;SDS011;74617;47.082;15.524;2024-02-15T04:36:46;0.82;;;0.50;;
83550;SDS011;74617;47.082;15.524;2024-02-15T04:39:18;1.92;;;0.60;;
83550;SDS011;74617;47.082;15.524;2024-02-15T04:41:52;1.10;;;0.50;;
83550;SDS011;74617;47.082;15.524;2024-02-15T04:44:18;1.35;;;0.60;;
83550;SDS011;74617;47.082;15.524;2024-02-15T04:46:45;1.25;;;0.68;;
83550;SDS011;74617;47.082;15.524;2024-02-15T04:49:12;1.40;;;0.65;;
83550;SDS011;74617;47.082;15.524;2024-02-15T04:51:39;0.82;;;0.40;;
83550;SDS011;74617;47.082;15.524;2024-02-15T04:54:06;0.65;;;0.30;;
83550;SDS011;74617;47.082;15.524;2024-02-15T04:56:32;1.45;;;0.50;;
83550;SDS011;74617;47.082;15.524;2024-02-15T04:58:58;0.57;;;0.40;;
83550;SDS011;74617;47.082;15.524;2024-02-15T05:01:24;1.27;;;0.60;;
83550;SDS011;74617;47.082;15.524;2024-02-15T05:03:49;1.02;;;0.60;;
83550;SDS011;74617;47.082;15.524;2024-02-15T05:06:14;1.05;;;0.40;;
83550;SDS011;74617;47.082;15.524;2024-02-15T05:08:40;1.63;;;0.80;;
83550;SDS011;74617;47.082;15.524;2024-02-15T05:11:09;0.28;;;0.28;;
83550;SDS011;74617;47.082;15.524;2024-02-15T05:13:45;1.00;;;0.73;;
83550;SDS011;74617;47.082;15.524;2024-02-15T05:16:11;1.27;;;0.65;;
83550;SDS011;74617;47.082;15.524;2024-02-15T05:18:37;0.77;;;0.50;;
83550;SDS011;74617;47.082;15.524;2024-02-15T05:21:05;3.25;;;0.65;;
83550;SDS011;74617;47.082;15.524;2024-02-15T05:23:34;2.47;;;1.50;;
83550;SDS011;74617;47.082;15.524;2024-02-15T05:26:00;1.65;;;0.52;;
83550;SDS011;74617;47.082;15.524;2024-02-15T05:28:25;2.28;;;0.63;;
83550;SDS011;74617;47.082;15.524;2024-02-15T05:33:40;2.03;;;0.70;;
83550;SDS011;74617;47.082;15.524;2024-02-15T05:36:12;1.33;;;0.75;;
83550;SDS011;74617;47.082;15.524;2024-02-15T05:38:38;0.60;;;0.50;;
83550;SDS011;74617;47.082;15.524;2024-02-15T05:41:05;0.98;;;0.43;;
83550;SDS011;74617;47.082;15.524;2024-02-15T05:43:32;0.77;;;0.43;;
83550;SDS011;74617;47.082;15.524;2024-02-15T05:46:02;1.08;;;0.50;;
83550;SDS011;74617;47.082;15.524;2024-02-15T05:48:28;1.65;;;0.80;;
83550;SDS011;74617;47.082;15.524;2024-02-15T05:50:56;0.50;;;0.30;;
83550;SDS011;74617;47.082;15.524;2024-02-15T05:53:23;0.75;;;0.47;;
83550;SDS011;74617;47.082;15.524;2024-02-15T05:55:49;1.45;;;0.75;;
83550;SDS011;74617;47.082;15.524;2024-02-15T05:58:15;1.13;;;0.65;;
83550;SDS011;74617;47.082;15.524;2024-02-15T06:00:40;1.60;;;0.70;;
83550;SDS011;74617;47.082;15.524;2024-02-15T06:03:06;0.38;;;0.30;;
83550;SDS011;74617;47.082;15.524;2024-02-15T06:05:34;1.30;;;0.60;;
83550;SDS011;74617;47.082;15.524;2024-02-15T06:07:59;0.70;;;0.30;;
83550;SDS011;74617;47.082;15.524;2024-02-15T06:10:25;0.80;;;0.20;;
83550;SDS011;74617;47.082;15.524;2024-02-15T06:12:50;0.95;;;0.50;;
83550;SDS011;74617;47.082;15.524;2024-02-15T06:15:16;1.23;;;0.50;;
83550;SDS011;74617;47.082;15.524;2024-02-15T06:17:42;1.17;;;0.50;;
83550;SDS011;74617;47.082;15.524;2024-02-15T06:20:10;1.42;;;0.50;;
83550;SDS011;74617;47.082;15.524;2024-02-15T06:22:39;2.05;;;0.60;;
83550;SDS011;74617;47.082;15.524;2024-02-15T06:25:05;0.73;;;0.52;;
83550;SDS011;74617;47.082;15.524;2024-02-15T06:27:31;0.55;;;0.50;;
83550;SDS011;74617;47.082;15.524;2024-02-15T06:29:57;0.80;;;0.40;;
83550;SDS011;74617;47.082;15.524;2024-02-15T06:32:41;1.58;;;0.63;;
83550;SDS011;74617;47.082;15.524;2024-02-15T06:35:25;0.90;;;0.60;;
83550;SDS011;74617;47.082;15.524;2024-02-15T06:38:09;1.45;;;0.63;;
83550;SDS011;74617;47.082;15.524;2024-02-15T06:40:53;0.88;;;0.40;;
83550;SDS011;74617;47.082;15.524;2024-02-15T06:43:19;1.30;;;0.50;;
83550;SDS011;74617;47.082;15.524;2024-02-15T06:45:44;0.88;;;0.57;;
83550;SDS011;74617;47.082;15.524;2024-02-15T06:48:12;5.93;;;0.68;;
83550;SDS011;74617;47.082;15.524;2024-02-15T06:50:38;0.93;;;0.55;;
83550;SDS011;74617;47.082;15.524;2024-02-15T06:53:04;1.63;;;0.45;;
83550;SDS011;74617;47.082;15.524;2024-02-15T06:55:30;3.45;;;0.77;;
83550;SDS011;74617;47.082;15.524;2024-02-15T06:57:55;1.30;;;0.60;;
83550;SDS011;74617;47.082;15.524;2024-02-15T07:00:21;1.08;;;0.45;;
83550;SDS011;74617;47.082;15.524;2024-02-15T07:02:47;0.98;;;0.32;;
83550;SDS011;74617;47.082;15.524;2024-02-15T07:05:13;0.73;;;0.40;;
83550;SDS011;74617;47.082;15.524;2024-02-15T07:07:39;2.75;;;0.85;;
83550;SDS011;74617;47.082;15.524;2024-02-15T07:10:07;4.70;;;0.90;;
83550;SDS011;74617;47.082;15.524;2024-02-15T07:12:34;1.05;;;0.43;;
83550;SDS011;74617;47.082;15.524;2024-02-15T07:14:59;0.70;;;0.40;;
83550;SDS011;74617;47.082;15.524;2024-02-15T07:17:27;1.98;;;0.70;;
83550;SDS011;74617;47.082;15.524;2024-02-15T07:19:53;1.13;;;0.57;;
83550;SDS011;74617;47.082;15.524;2024-02-15T07:22:18;1.48;;;0.65;;
83550;SDS011;74617;47.082;15.524;2024-02-15T07:24:43;0.55;;;0.40;;
83550;SDS011;74617;47.082;15.524;2024-02-15T07:27:09;0.70;;;0.40;;
83550;SDS011;74617;47.082;15.524;2024-02-15T07:29:35;1.60;;;0.70;;
83550;SDS011;74617;47.082;15.524;2024-02-15T07:32:02;1.23;;;0.52;;
83550;SDS011;74617;47.082;15.524;2024-02-15T07:34:29;3.20;;;0.70;;
83550;SDS011;74617;47.082;15.524;2024-02-15T07:36:55;1.73;;;0.73;;
83550;SDS011;74617;47.082;15.524;2024-02-15T07:39:22;3.10;;;0.93;;
83550;SDS011;74617;47.082;15.524;2024-02-15T07:41:56;6.47;;;1.33;;
83550;SDS011;74617;47.082;15.524;2024-02-15T07:44:23;4.10;;;1.00;;
83550;SDS011;74617;47.082;15.524;2024-02-15T07:46:49;3.03;;;0.80;;
83550;SDS011;74617;47.082;15.524;2024-02-15T07:49:15;2.78;;;1.00;;
83550;SDS011;74617;47.082;15.524;2024-02-15T07:51:42;7.13;;;1.30;;
83550;SDS011;74617;47.082;15.524;2024-02-15T07:54:08;2.35;;;0.95;;
83550;SDS011;74617;47.082;15.524;2024-02-15T07:56:34;7.40;;;1.17;;
83550;SDS011;74617;47.082;15.524;2024-02-15T07:59:00;2.53;;;0.90;;
83550;SDS011;74617;47.082;15.524;2024-02-15T08:01:25;5.43;;;1.63;;
83550;SDS011;74617;47.082;15.524;2024-02-15T08:03:51;10.30;;;1.35;;
83550;SDS011;74617;47.082;15.524;2024-02-15T08:06:17;10.98;;;1.45;;
83550;SDS011;74617;47.082;15.524;2024-02-15T08:08:43;8.48;;;1.75;;
83550;SDS011;74617;47.082;15.524;2024-02-15T08:11:12;2.78;;;1.00;;
83550;SDS011;74617;47.082;15.524;2024-02-15T08:16:10;4.03;;;1.10;;
83550;SDS011;74617;47.082;15.524;2024-02-15T08:18:37;8.35;;;1.45;;
83550;SDS011;74617;47.082;15.524;2024-02-15T08:21:04;2.22;;;0.75;;
83550;SDS011;74617;47.082;15.524;2024-02-15T08:23:30;4.78;;;1.23;;
83550;SDS011;74617;47.082;15.524;2024-02-15T08:25:55;6.00;;;1.08;;
83550;SDS011;74617;47.082;15.524;2024-02-15T08:28:22;6.03;;;1.02;;
83550;SDS011;74617;47.082;15.524;2024-02-15T08:30:48;4.68;;;1.13;;
83550;SDS011;74617;47.082;15.524;2024-02-15T08:33:13;4.15;;;1.13;;
83550;SDS011;74617;47.082;15.524;2024-02-15T08:35:38;4.22;;;1.15;;
83550;SDS011;74617;47.082;15.524;2024-02-15T08:38:06;4.30;;;0.85;;
83550;SDS011;74617;47.082;15.524;2024-02-15T08:40:31;4.65;;;1.38;;
83550;SDS011;74617;47.082;15.524;2024-02-15T08:42:57;3.28;;;1.23;;
83550;SDS011;74617;47.082;15.524;2024-02-15T08:45:22;4.10;;;1.20;;
83550;SDS011;74617;47.082;15.524;2024-02-15T08:47:48;4.68;;;0.90;;
83550;SDS011;74617;47.082;15.524;2024-02-15T08:50:17;2.72;;;0.88;;
83550;SDS011;74617;47.082;15.524;2024-02-15T08:52:43;2.08;;;0.85;;
83550;SDS011;74617;47.082;15.524;2024-02-15T08:55:09;2.33;;;0.73;;
83550;SDS011;74617;47.082;15.524;2024-02-15T08:57:36;5.47;;;1.35;;
83550;SDS011;74617;47.082;15.524;2024-02-15T09:00:05;3.63;;;0.90;;
83550;SDS011;74617;47.082;15.524;2024-02-15T09:02:38;3.75;;;1.35;;
83550;SDS011;74617;47.082;15.524;2024-02-15T09:05:03;5.55;;;1.15;;
83550;SDS011;74617;47.082;15.524;2024-02-15T09:07:29;6.45;;;1.45;;
83550;SDS011;74617;47.082;15.524;2024-02-15T09:09:55;6.03;;;1.48;;
83550;SDS011;74617;47.082;15.524;2024-02-15T09:12:21;5.13;;;1.40;;
83550;SDS011;74617;47.082;15.524;2024-02-15T09:14:47;2.75;;;0.98;;
83550;SDS011;74617;47.082;15.524;2024-02-15T09:17:13;4.40;;;1.30;;
83550;SDS011;74617;47.082;15.524;2024-02-15T09:19:39;3.78;;;1.10;;
83550;SDS011;74617;47.082;15.524;2024-02-15T09:22:04;3.20;;;0.98;;
83550;SDS011;74617;47.082;15.524;2024-02-15T09:24:32;3.17;;;0.95;;
83550;SDS011;74617;47.082;15.524;2024-02-15T09:27:03;4.55;;;1.00;;
83550;SDS011;74617;47.082;15.524;2024-02-15T09:29:29;4.43;;;0.82;;
83550;SDS011;74617;47.082;15.524;2024-02-15T09:31:57;2.92;;;0.95;;
83550;SDS011;74617;47.082;15.524;2024-02-15T09:34:24;2.95;;;1.05;;
83550;SDS011;74617;47.082;15.524;2024-02-15T09:36:50;3.97;;;1.02;;
83550;SDS011;74617;47.082;15.524;2024-02-15T09:39:15;6.78;;;1.67;;
83550;SDS011;74617;47.082;15.524;2024-02-15T09:41:42;4.07;;;0.80;;
83550;SDS011;74617;47.082;15.524;2024-02-15T09:44:08;4.60;;;1.10;;
83550;SDS011;74617;47.082;15.524;2024-02-15T09:46:38;2.13;;;0.77;;
83550;SDS011;74617;47.082;15.524;2024-02-15T09:49:10;3.05;;;0.85;;
83550;SDS011;74617;47.082;15.524;2024-02-15T09:51:36;6.95;;;1.08;;
83550;SDS011;74617;47.082;15.524;2024-02-15T09:54:03;5.75;;;1.20;;
83550;SDS011;74617;47.082;15.524;2024-02-15T09:56:30;3.00;;;0.90;;
83550;SDS011;74617;47.082;15.524;2024-02-15T09:58:56;4.20;;;1.00;;
83550;SDS011;74617;47.082;15.524;2024-02-15T10:01:24;3.90;;;0.88;;
83550;SDS011;74617;47.082;15.524;2024-02-15T10:03:52;4.22;;;0.85;;
83550;SDS011;74617;47.082;15.524;2024-02-15T10:06:18;3.58;;;0.80;;
83550;SDS011;74617;47.082;15.524;2024-02-15T10:08:45;2.67;;;0.90;;
83550;SDS011;74617;47.082;15.524;2024-02-15T10:11:12;2.05;;;0.85;;
83550;SDS011;74617;47.082;15.524;2024-02-15T10:13:37;4.07;;;0.77;;
83550;SDS011;74617;47.082;15.524;2024-02-15T10:16:37;3.03;;;0.88;;
83550;SDS011;74617;47.082;15.524;2024-02-15T10:19:09;3.15;;;0.75;;
83550;SDS011;74617;47.082;15.524;2024-02-15T10:21:35;3.30;;;1.10;;
83550;SDS011;74617;47.082;15.524;2024-02-15T10:24:04;2.95;;;1.10;;
83550;SDS011;74617;47.082;15.524;2024-02-15T10:26:31;4.85;;;1.15;;
83550;SDS011;74617;47.082;15.524;2024-02-15T10:29:10;3.10;;;1.00;;
83550;SDS011;74617;47.082;15.524;2024-02-15T10:31:37;4.13;;;1.02;;
83550;SDS011;74617;47.082;15.524;2024-02-15T10:34:04;3.22;;;0.82;;
83550;SDS011;74617;47.082;15.524;2024-02-15T10:36:32;3.35;;;0.90;;
83550;SDS011;74617;47.082;15.524;2024-02-15T10:39:15;2.78;;;0.70;;
83550;SDS011;74617;47.082;15.524;2024-02-15T10:41:51;3.15;;;1.25;;
83550;SDS011;74617;47.082;15.524;2024-02-15T10:44:21;2.40;;;1.00;;
83550;SDS011;74617;47.082;15.524;2024-02-15T10:46:49;3.78;;;0.90;;
83550;SDS011;74617;47.082;15.524;2024-02-15T10:51:44;2.05;;;0.80;;
83550;SDS011;74617;47.082;15.524;2024-02-15T10:57:11;3.08;;;1.10;;
83550;SDS011;74617;47.082;15.524;2024-02-15T11:02:23;3.03;;;1.23;;
83550;SDS011;74617;47.082;15.524;2024-02-15T11:04:55;3.78;;;1.10;;
83550;SDS011;74617;47.082;15.524;2024-02-15T11:07:27;6.15;;;1.40;;
83550;SDS011;74617;47.082;15.524;2024-02-15T11:09:56;6.57;;;1.63;;
83550;SDS011;74617;47.082;15.524;2024-02-15T11:12:23;5.72;;;1.15;;
83550;SDS011;74617;47.082;15.524;2024-02-15T11:14:51;6.25;;;1.65;;
83550;SDS011;74617;47.082;15.524;2024-02-15T11:20:02;3.65;;;1.27;;
83550;SDS011;74617;47.082;15.524;2024-02-15T11:22:33;5.15;;;1.88;;
83550;SDS011;74617;47.082;15.524;2024-02-15T11:25:02;5.45;;;1.63;;
83550;SDS011;74617;47.082;15.524;2024-02-15T11:30:04;5.05;;;1.67;;
83550;SDS011;74617;47.082;15.524;2024-02-15T11:35:21;5.25;;;1.73;;
83550;SDS011;74617;47.082;15.524;2024-02-15T11:40:26;7.15;;;1.80;;
83550;SDS011;74617;47.082;15.524;2024-02-15T11:46:13;3.33;;;1.17;;
83550;SDS011;74617;47.082;15.524;2024-02-15T11:51:05;6.90;;;1.10;;
83550;SDS011;74617;47.082;15.524;2024-02-15T11:53:34;3.50;;;1.40;;
83550;SDS011;74617;47.082;15.524;2024-02-15T11:56:02;5.60;;;2.15;;
83550;SDS011;74617;47.082;15.524;2024-02-15T11:58:30;7.22;;;1.50;;
83550;SDS011;74617;47.082;15.524;2024-02-15T12:01:11;6.50;;;1.70;;
83550;SDS011;74617;47.082;15.524;2024-02-15T12:03:55;4.50;;;1.75;;
83550;SDS011;74617;47.082;15.524;2024-02-15T12:06:47;5.93;;;1.48;;
83550;SDS011;74617;47.082;15.524;2024-02-15T12:09:31;5.28;;;1.67;;
83550;SDS011;74617;47.082;15.524;2024-02-15T12:12:15;4.97;;;1.40;;
83550;SDS011;74617;47.082;15.524;2024-02-15T12:15:00;6.00;;;1.52;;
83550;SDS011;74617;47.082;15.524;2024-02-15T12:17:44;5.85;;;1.58;;
83550;SDS011;74617;47.082;15.524;2024-02-15T12:20:28;6.50;;;1.58;;
83550;SDS011;74617;47.082;15.524;2024-02-15T12:22:54;7.70;;;1.70;;
83550;SDS011;74617;47.082;15.524;2024-02-15T12:25:21;6.75;;;1.92;;
83550;SDS011;74617;47.082;15.524;2024-02-15T12:27:54;3.10;;;1.17;;
83550;SDS011;74617;47.082;15.524;2024-02-15T12:30:21;6.75;;;1.77;;
83550;SDS011;74617;47.082;15.524;2024-02-15T12:32:49;4.55;;;1.55;;
83550;SDS011;74617;47.082;15.524;2024-02-15T12:35:15;5.72;;;1.70;;
83550;SDS011;74617;47.082;15.524;2024-02-15T12:37:48;8.25;;;1.95;;
83550;SDS011;74617;47.082;15.524;2024-02-15T12:40:36;3.05;;;1.55;;
83550;SDS011;74617;47.082;15.524;2024-02-15T12:43:06;4.10;;;1.60;;
83550;SDS011;74617;47.082;15.524;2024-02-15T12:45:35;3.47;;;1.60;;
83550;SDS011;74617;47.082;15.524;2024-02-15T12:48:03;7.55;;;2.00;;
83550;SDS011;74617;47.082;15.524;2024-02-15T12:50:30;8.38;;;1.88;;
83550;SDS011;74617;47.082;15.524;2024-02-15T12:52:56;5.32;;;1.67;;
83550;SDS011;74617;47.082;15.524;2024-02-15T12:55:31;7.72;;;1.55;;
83550;SDS011;74617;47.082;15.524;2024-02-15T13:00:32;5.63;;;1.80;;
83550;SDS011;74617;47.082;15.524;2024-02-15T13:02:58;5.38;;;1.52;;
83550;SDS011;74617;47.082;15.524;2024-02-15T13:05:25;4.45;;;1.25;;
83550;SDS011;74617;47.082;15.524;2024-02-15T13:07:52;6.88;;;1.75;;
83550;SDS011;74617;47.082;15.524;2024-02-15T13:10:20;5.15;;;1.35;;
83550;SDS011;74617;47.082;15.524;2024-02-15T13:12:46;4.50;;;1.20;;
83550;SDS011;74617;47.082;15.524;2024-02-15T13:15:12;6.70;;;1.50;;
83550;SDS011;74617;47.082;15.524;2024-02-15T13:17:48;5.45;;;1.55;;
83550;SDS011;74617;47.082;15.524;2024-02-15T13:20:14;8.32;;;1.48;;
83550;SDS011;74617;47.082;15.524;2024-02-15T13:22:41;5.88;;;2.17;;
83550;SDS011;74617;47.082;15.524;2024-02-15T13:25:08;4.45;;;1.33;;
83550;SDS011;74617;47.082;15.524;2024-02-15T13:27:35;8.02;;;1.88;;
83550;SDS011;74617;47.082;15.524;2024-02-15T13:30:03;6.25;;;1.98;;
83550;SDS011;74617;47.082;15.524;2024-02-15T13:32:37;6.05;;;1.55;;
83550;SDS011;74617;47.082;15.524;2024-02-15T13:35:06;9.00;;;1.73;;
83550;SDS011;74617;47.082;15.524;2024-02-15T13:37:39;7.30;;;1.42;;
83550;SDS011;74617;47.082;15.524;2024-02-15T13:40:11;3.80;;;1.50;;
83550;SDS011;74617;47.082;15.524;2024-02-15T13:42:46;6.53;;;2.05;;
83550;SDS011;74617;47.082;15.524;2024-02-15T13:45:20;8.05;;;1.58;;
83550;SDS011;74617;47.082;15.524;2024-02-15T13:47:47;5.22;;;1.40;;
83550;SDS011;74617;47.082;15.524;2024-02-15T13:50:13;7.00;;;2.25;;
83550;SDS011;74617;47.082;15.524;2024-02-15T13:52:42;5.75;;;1.45;;
83550;SDS011;74617;47.082;15.524;2024-02-15T13:55:09;5.22;;;1.35;;
83550;SDS011;74617;47.082;15.524;2024-02-15T13:57:42;5.15;;;1.70;;
83550;SDS011;74617;47.082;15.524;2024-02-15T14:00:09;3.85;;;1.45;;
83550;SDS011;74617;47.082;15.524;2024-02-15T14:02:47;4.97;;;1.38;;
83550;SDS011;74617;47.082;15.524;2024-02-15T14:05:16;7.82;;;1.80;;
83550;SDS011;74617;47.082;15.524;2024-02-15T14:07:48;3.20;;;1.45;;
83550;SDS011;74617;47.082;15.524;2024-02-15T14:10:18;8.10;;;1.65;;
83550;SDS011;74617;47.082;15.524;2024-02-15T14:12:46;4.40;;;1.40;;
83550;SDS011;74617;47.082;15.524;2024-02-15T14:15:12;5.18;;;1.60;;
83550;SDS011;74617;47.082;15.524;2024-02-15T14:17:37;4.80;;;1.30;;
83550;SDS011;74617;47.082;15.524;2024-02-15T14:20:03;5.63;;;1.15;;
83550;SDS011;74617;47.082;15.524;2024-02-15T14:22:34;7.10;;;1.73;;
83550;SDS011;74617;47.082;15.524;2024-02-15T14:25:00;5.10;;;1.48;;
83550;SDS011;74617;47.082;15.524;2024-02-15T14:27:25;5.82;;;1.90;;
83550;SDS011;74617;47.082;15.524;2024-02-15T14:29:51;5.97;;;1.23;;
83550;SDS011;74617;47.082;15.524;2024-02-15T14:32:35;5.78;;;2.08;;
83550;SDS011;74617;47.082;15.524;2024-02-15T14:35:19;7.32;;;2.05;;
83550;SDS011;74617;47.082;15.524;2024-02-15T14:37:45;5.95;;;1.63;;
83550;SDS011;74617;47.082;15.524;2024-02-15T14:40:12;3.25;;;1.35;;
83550;SDS011;74617;47.082;15.524;2024-02-15T14:42:40;4.00;;;1.63;;
83550;SDS011;74617;47.082;15.524;2024-02-15T14:45:10;5.25;;;1.45;;
83550;SDS011;74617;47.082;15.524;2024-02-15T14:47:36;4.78;;;1.50;;
83550;SDS011;74617;47.082;15.524;2024-02-15T14:50:02;3.30;;;1.30;;
83550;SDS011;74617;47.082;15.524;2024-02-15T14:52:28;5.50;;;1.73;;
83550;SDS011;74617;47.082;15.524;2024-02-15T14:54:54;9.02;;;1.67;;
83550;SDS011;74617;47.082;15.524;2024-02-15T14:57:19;5.20;;;1.80;;
83550;SDS011;74617;47.082;15.524;2024-02-15T14:59:45;5.22;;;1.40;;
83550;SDS011;74617;47.082;15.524;2024-02-15T15:02:10;2.90;;;1.35;;
83550;SDS011;74617;47.082;15.524;2024-02-15T15:04:35;5.78;;;1.65;;
83550;SDS011;74617;47.082;15.524;2024-02-15T15:07:21;3.95;;;0.93;;
83550;SDS011;74617;47.082;15.524;2024-02-15T15:10:05;5.45;;;1.67;;